sensor_id;sensor_type;location;lat;lon;timestamp;P1;durP1;ratioP1;P2;durP2;ratioP2
55063;SDS011;40963;52.168;21.296;2023-06-14T00:00:42;8.00;;;5.78;;
55063;SDS011;40963;52.168;21.296;2023-06-14T00:03:08;6.68;;;5.00;;
55063;SDS011;40963;52.168;21.296;2023-06-14T00:05:35;9.18;;;5.35;;
55063;SDS011;40963;52.168;21.296;2023-06-14T00:08:07;8.55;;;5.50;;
55063;SDS011;40963;52.168;21.296;2023-06-14T00:10:34;9.82;;;4.88;;
55063;SDS011;40963;52.168;21.296;2023-06-14T00:13:01;9.07;;;5.57;;
55063;SDS011;40963;52.168;21.296;2023-06-14T00:15:27;6.35;;;4.72;;
55063;SDS011;40963;52.168;21.296;2023-06-14T00:17:53;7.53;;;5.28;;
55063;SDS011;40963;52.168;21.296;2023-06-14T00:20:19;8.30;;;5.45;;
55063;SDS011;40963;52.168;21.296;2023-06-14T00:22:46;6.88;;;5.22;;
55063;SDS011;40963;52.168;21.296;2023-06-14T00:25:13;11.98;;;6.10;;
55063;SDS011;40963;52.168;21.296;2023-06-14T00:27:38;10.48;;;5.07;;
55063;SDS011;40963;52.168;21.296;2023-06-14T00:30:04;10.85;;;5.05;;
55063;SDS011;40963;52.168;21.296;2023-06-14T00:32:30;8.45;;;5.18;;
55063;SDS011;40963;52.168;21.296;2023-06-14T00:34:55;8.05;;;4.82;;
55063;SDS011;40963;52.168;21.296;2023-06-14T00:37:21;8.40;;;5.38;;
55063;SDS011;40963;52.168;21.296;2023-06-14T00:39:47;8.85;;;5.57;;
55063;SDS011;40963;52.168;21.296;2023-06-14T00:42:22;9.32;;;5.53;;
55063;SDS011;40963;52.168;21.296;2023-06-14T00:44:49;7.28;;;5.20;;
55063;SDS011;40963;52.168;21.296;2023-06-14T00:47:15;10.45;;;5.97;;
55063;SDS011;40963;52.168;21.296;2023-06-14T00:49:40;23.85;;;5.85;;
55063;SDS011;40963;52.168;21.296;2023-06-14T00:52:06;15.68;;;5.82;;
55063;SDS011;40963;52.168;21.296;2023-06-14T00:54:32;8.57;;;5.57;;
55063;SDS011;40963;52.168;21.296;2023-06-14T00:56:58;10.05;;;5.50;;
55063;SDS011;40963;52.168;21.296;2023-06-14T00:59:23;10.05;;;6.03;;
55063;SDS011;40963;52.168;21.296;2023-06-14T01:01:50;7.72;;;5.30;;
55063;SDS011;40963;52.168;21.296;2023-06-14T01:04:15;9.27;;;5.80;;
55063;SDS011;40963;52.168;21.296;2023-06-14T01:06:50;10.10;;;5.85;;
55063;SDS011;40963;52.168;21.296;2023-06-14T01:11:59;9.73;;;5.57;;
55063;SDS011;40963;52.168;21.296;2023-06-14T01:14:38;8.98;;;5.78;;
55063;SDS011;40963;52.168;21.296;2023-06-14T01:17:06;6.85;;;4.90;;
55063;SDS011;40963;52.168;21.296;2023-06-14T01:19:40;6.25;;;5.15;;
55063;SDS011;40963;52.168;21.296;2023-06-14T01:22:07;7.80;;;5.10;;
55063;SDS011;40963;52.168;21.296;2023-06-14T01:24:33;7.32;;;5.07;;
55063;SDS011;40963;52.168;21.296;2023-06-14T01:26:59;13.50;;;5.50;;
55063;SDS011;40963;52.168;21.296;2023-06-14T01:29:26;11.90;;;5.93;;
55063;SDS011;40963;52.168;21.296;2023-06-14T01:31:53;12.98;;;6.18;;
55063;SDS011;40963;52.168;21.296;2023-06-14T01:34:19;13.02;;;6.03;;
55063;SDS011;40963;52.168;21.296;2023-06-14T01:36:45;8.80;;;5.82;;
55063;SDS011;40963;52.168;21.296;2023-06-14T01:39:14;9.48;;;5.70;;
55063;SDS011;40963;52.168;21.296;2023-06-14T01:41:40;9.18;;;5.75;;
55063;SDS011;40963;52.168;21.296;2023-06-14T01:44:07;7.35;;;5.47;;
55063;SDS011;40963;52.168;21.296;2023-06-14T01:46:34;10.30;;;5.82;;
55063;SDS011;40963;52.168;21.296;2023-06-14T01:49:00;10.18;;;5.70;;
55063;SDS011;40963;52.168;21.296;2023-06-14T01:51:27;13.35;;;6.25;;
55063;SDS011;40963;52.168;21.296;2023-06-14T01:53:52;11.23;;;5.93;;
55063;SDS011;40963;52.168;21.296;2023-06-14T01:56:18;9.65;;;5.75;;
55063;SDS011;40963;52.168;21.296;2023-06-14T01:58:44;8.50;;;5.82;;
55063;SDS011;40963;52.168;21.296;2023-06-14T02:01:10;9.70;;;6.10;;
55063;SDS011;40963;52.168;21.296;2023-06-14T02:03:37;12.75;;;5.90;;
55063;SDS011;40963;52.168;21.296;2023-06-14T02:06:03;10.13;;;5.65;;
55063;SDS011;40963;52.168;21.296;2023-06-14T02:08:29;8.63;;;5.28;;
55063;SDS011;40963;52.168;21.296;2023-06-14T02:10:55;16.83;;;5.80;;
55063;SDS011;40963;52.168;21.296;2023-06-14T02:13:20;10.02;;;5.88;;
55063;SDS011;40963;52.168;21.296;2023-06-14T02:15:46;14.82;;;5.32;;
55063;SDS011;40963;52.168;21.296;2023-06-14T02:18:16;7.88;;;5.00;;
55063;SDS011;40963;52.168;21.296;2023-06-14T02:20:41;11.45;;;5.82;;
55063;SDS011;40963;52.168;21.296;2023-06-14T02:23:07;10.02;;;6.05;;
55063;SDS011;40963;52.168;21.296;2023-06-14T02:25:32;8.32;;;5.70;;
55063;SDS011;40963;52.168;21.296;2023-06-14T02:27:58;7.72;;;5.82;;
55063;SDS011;40963;52.168;21.296;2023-06-14T02:30:24;12.63;;;6.35;;
55063;SDS011;40963;52.168;21.296;2023-06-14T02:32:49;7.40;;;5.63;;
55063;SDS011;40963;52.168;21.296;2023-06-14T02:35:16;10.88;;;5.72;;
55063;SDS011;40963;52.168;21.296;2023-06-14T02:37:42;13.07;;;6.03;;
55063;SDS011;40963;52.168;21.296;2023-06-14T02:40:08;9.60;;;6.07;;
55063;SDS011;40963;52.168;21.296;2023-06-14T02:42:34;10.00;;;6.65;;
55063;SDS011;40963;52.168;21.296;2023-06-14T02:44:59;9.38;;;5.85;;
55063;SDS011;40963;52.168;21.296;2023-06-14T02:47:25;9.90;;;6.47;;
55063;SDS011;40963;52.168;21.296;2023-06-14T02:49:51;7.95;;;5.82;;
55063;SDS011;40963;52.168;21.296;2023-06-14T02:52:16;10.82;;;6.45;;
55063;SDS011;40963;52.168;21.296;2023-06-14T02:54:42;9.13;;;6.07;;
55063;SDS011;40963;52.168;21.296;2023-06-14T02:57:08;11.10;;;6.68;;
55063;SDS011;40963;52.168;21.296;2023-06-14T02:59:34;9.43;;;7.05;;
55063;SDS011;40963;52.168;21.296;2023-06-14T03:02:00;13.18;;;6.57;;
55063;SDS011;40963;52.168;21.296;2023-06-14T03:04:26;8.82;;;6.72;;
55063;SDS011;40963;52.168;21.296;2023-06-14T03:06:52;14.02;;;6.32;;
55063;SDS011;40963;52.168;21.296;2023-06-14T03:09:18;10.32;;;6.68;;
55063;SDS011;40963;52.168;21.296;2023-06-14T03:11:44;10.73;;;7.07;;
55063;SDS011;40963;52.168;21.296;2023-06-14T03:14:10;13.32;;;6.60;;
55063;SDS011;40963;52.168;21.296;2023-06-14T03:16:36;19.13;;;7.13;;
55063;SDS011;40963;52.168;21.296;2023-06-14T03:19:02;13.52;;;7.05;;
55063;SDS011;40963;52.168;21.296;2023-06-14T03:21:28;12.65;;;7.07;;
55063;SDS011;40963;52.168;21.296;2023-06-14T03:23:53;10.40;;;7.00;;
55063;SDS011;40963;52.168;21.296;2023-06-14T03:26:19;16.80;;;7.47;;
55063;SDS011;40963;52.168;21.296;2023-06-14T03:28:45;13.35;;;7.53;;
55063;SDS011;40963;52.168;21.296;2023-06-14T03:31:12;10.80;;;6.97;;
55063;SDS011;40963;52.168;21.296;2023-06-14T03:33:38;10.57;;;6.72;;
55063;SDS011;40963;52.168;21.296;2023-06-14T03:36:04;13.57;;;8.02;;
55063;SDS011;40963;52.168;21.296;2023-06-14T03:38:30;10.77;;;6.88;;
55063;SDS011;40963;52.168;21.296;2023-06-14T03:40:56;11.32;;;7.20;;
55063;SDS011;40963;52.168;21.296;2023-06-14T03:43:22;14.88;;;7.13;;
55063;SDS011;40963;52.168;21.296;2023-06-14T03:45:47;10.25;;;6.78;;
55063;SDS011;40963;52.168;21.296;2023-06-14T03:48:13;14.00;;;7.20;;
55063;SDS011;40963;52.168;21.296;2023-06-14T03:50:38;20.35;;;7.07;;
55063;SDS011;40963;52.168;21.296;2023-06-14T03:53:04;13.98;;;7.50;;
55063;SDS011;40963;52.168;21.296;2023-06-14T03:55:30;11.73;;;7.85;;
55063;SDS011;40963;52.168;21.296;2023-06-14T03:57:58;11.07;;;7.00;;
55063;SDS011;40963;52.168;21.296;2023-06-14T04:00:24;14.80;;;7.20;;
55063;SDS011;40963;52.168;21.296;2023-06-14T04:02:51;14.15;;;7.25;;
55063;SDS011;40963;52.168;21.296;2023-06-14T04:05:17;11.73;;;7.22;;
55063;SDS011;40963;52.168;21.296;2023-06-14T04:07:44;13.63;;;7.15;;
55063;SDS011;40963;52.168;21.296;2023-06-14T04:10:10;15.85;;;7.50;;
55063;SDS011;40963;52.168;21.296;2023-06-14T04:12:37;11.88;;;7.25;;
55063;SDS011;40963;52.168;21.296;2023-06-14T04:15:03;10.65;;;7.03;;
55063;SDS011;40963;52.168;21.296;2023-06-14T04:17:31;14.10;;;7.05;;
55063;SDS011;40963;52.168;21.296;2023-06-14T04:19:58;11.00;;;7.55;;
55063;SDS011;40963;52.168;21.296;2023-06-14T04:22:24;11.85;;;7.55;;
55063;SDS011;40963;52.168;21.296;2023-06-14T04:24:53;11.23;;;7.10;;
55063;SDS011;40963;52.168;21.296;2023-06-14T04:27:21;8.48;;;6.38;;
55063;SDS011;40963;52.168;21.296;2023-06-14T04:29:53;11.95;;;7.60;;
55063;SDS011;40963;52.168;21.296;2023-06-14T04:32:24;9.73;;;7.03;;
55063;SDS011;40963;52.168;21.296;2023-06-14T04:34:54;13.45;;;6.90;;
55063;SDS011;40963;52.168;21.296;2023-06-14T04:37:23;11.13;;;7.38;;
55063;SDS011;40963;52.168;21.296;2023-06-14T04:39:49;9.77;;;7.05;;
55063;SDS011;40963;52.168;21.296;2023-06-14T04:42:16;10.50;;;7.40;;
55063;SDS011;40963;52.168;21.296;2023-06-14T04:44:46;15.43;;;8.25;;
55063;SDS011;40963;52.168;21.296;2023-06-14T04:47:13;17.83;;;7.65;;
55063;SDS011;40963;52.168;21.296;2023-06-14T04:49:41;13.63;;;7.18;;
55063;SDS011;40963;52.168;21.296;2023-06-14T04:52:07;12.30;;;7.30;;
55063;SDS011;40963;52.168;21.296;2023-06-14T04:54:35;12.38;;;7.80;;
55063;SDS011;40963;52.168;21.296;2023-06-14T04:57:02;10.55;;;7.70;;
55063;SDS011;40963;52.168;21.296;2023-06-14T04:59:31;11.15;;;7.30;;
55063;SDS011;40963;52.168;21.296;2023-06-14T05:02:00;8.75;;;7.18;;
55063;SDS011;40963;52.168;21.296;2023-06-14T05:04:26;16.73;;;7.95;;
55063;SDS011;40963;52.168;21.296;2023-06-14T05:06:53;10.65;;;7.60;;
55063;SDS011;40963;52.168;21.296;2023-06-14T05:09:19;11.80;;;8.05;;
55063;SDS011;40963;52.168;21.296;2023-06-14T05:11:45;12.10;;;8.02;;
55063;SDS011;40963;52.168;21.296;2023-06-14T05:14:12;10.15;;;7.55;;
55063;SDS011;40963;52.168;21.296;2023-06-14T05:16:39;12.93;;;7.53;;
55063;SDS011;40963;52.168;21.296;2023-06-14T05:19:05;14.95;;;8.15;;
55063;SDS011;40963;52.168;21.296;2023-06-14T05:21:31;14.18;;;8.27;;
55063;SDS011;40963;52.168;21.296;2023-06-14T05:23:59;13.75;;;7.28;;
55063;SDS011;40963;52.168;21.296;2023-06-14T05:26:25;11.15;;;7.45;;
55063;SDS011;40963;52.168;21.296;2023-06-14T05:28:55;11.15;;;7.38;;
55063;SDS011;40963;52.168;21.296;2023-06-14T05:31:25;10.10;;;6.97;;
55063;SDS011;40963;52.168;21.296;2023-06-14T05:33:51;14.35;;;7.55;;
55063;SDS011;40963;52.168;21.296;2023-06-14T05:36:17;15.35;;;7.93;;
55063;SDS011;40963;52.168;21.296;2023-06-14T05:38:43;15.57;;;8.25;;
55063;SDS011;40963;52.168;21.296;2023-06-14T05:41:08;12.20;;;7.60;;
55063;SDS011;40963;52.168;21.296;2023-06-14T05:43:34;14.18;;;8.48;;
55063;SDS011;40963;52.168;21.296;2023-06-14T05:46:00;10.75;;;7.03;;
55063;SDS011;40963;52.168;21.296;2023-06-14T05:48:25;12.77;;;7.85;;
55063;SDS011;40963;52.168;21.296;2023-06-14T05:50:51;21.60;;;8.10;;
55063;SDS011;40963;52.168;21.296;2023-06-14T05:53:16;13.48;;;7.80;;
55063;SDS011;40963;52.168;21.296;2023-06-14T05:55:42;13.18;;;7.63;;
55063;SDS011;40963;52.168;21.296;2023-06-14T05:58:08;10.68;;;7.82;;
55063;SDS011;40963;52.168;21.296;2023-06-14T06:00:33;18.00;;;8.00;;
55063;SDS011;40963;52.168;21.296;2023-06-14T06:02:59;12.27;;;8.13;;
55063;SDS011;40963;52.168;21.296;2023-06-14T06:05:25;15.95;;;8.10;;
55063;SDS011;40963;52.168;21.296;2023-06-14T06:07:51;19.98;;;8.13;;
55063;SDS011;40963;52.168;21.296;2023-06-14T06:10:17;10.50;;;8.00;;
55063;SDS011;40963;52.168;21.296;2023-06-14T06:12:43;16.10;;;7.80;;
55063;SDS011;40963;52.168;21.296;2023-06-14T06:15:09;10.52;;;7.93;;
55063;SDS011;40963;52.168;21.296;2023-06-14T06:17:38;13.27;;;7.70;;
55063;SDS011;40963;52.168;21.296;2023-06-14T06:20:04;14.70;;;8.55;;
55063;SDS011;40963;52.168;21.296;2023-06-14T06:22:33;15.00;;;7.88;;
55063;SDS011;40963;52.168;21.296;2023-06-14T06:24:59;11.32;;;8.48;;
55063;SDS011;40963;52.168;21.296;2023-06-14T06:27:24;13.30;;;9.00;;
55063;SDS011;40963;52.168;21.296;2023-06-14T06:29:50;14.55;;;8.48;;
55063;SDS011;40963;52.168;21.296;2023-06-14T06:32:16;13.73;;;8.57;;
55063;SDS011;40963;52.168;21.296;2023-06-14T06:34:42;13.68;;;8.00;;
55063;SDS011;40963;52.168;21.296;2023-06-14T06:37:08;13.07;;;7.55;;
55063;SDS011;40963;52.168;21.296;2023-06-14T06:39:33;16.70;;;8.10;;
55063;SDS011;40963;52.168;21.296;2023-06-14T06:41:59;10.40;;;8.13;;
55063;SDS011;40963;52.168;21.296;2023-06-14T06:44:25;16.60;;;8.13;;
55063;SDS011;40963;52.168;21.296;2023-06-14T06:46:51;16.08;;;7.80;;
55063;SDS011;40963;52.168;21.296;2023-06-14T06:49:16;13.00;;;7.72;;
55063;SDS011;40963;52.168;21.296;2023-06-14T06:51:42;12.95;;;7.72;;
55063;SDS011;40963;52.168;21.296;2023-06-14T06:54:08;8.48;;;7.10;;
55063;SDS011;40963;52.168;21.296;2023-06-14T06:56:34;9.10;;;7.35;;
55063;SDS011;40963;52.168;21.296;2023-06-14T06:59:00;12.73;;;8.18;;
55063;SDS011;40963;52.168;21.296;2023-06-14T07:01:26;15.82;;;8.07;;
55063;SDS011;40963;52.168;21.296;2023-06-14T07:03:53;12.80;;;7.05;;
55063;SDS011;40963;52.168;21.296;2023-06-14T07:06:19;10.02;;;7.05;;
55063;SDS011;40963;52.168;21.296;2023-06-14T07:08:45;11.80;;;6.85;;
55063;SDS011;40963;52.168;21.296;2023-06-14T07:11:13;15.52;;;7.10;;
55063;SDS011;40963;52.168;21.296;2023-06-14T07:13:39;9.93;;;6.90;;
55063;SDS011;40963;52.168;21.296;2023-06-14T07:16:04;12.35;;;7.70;;
55063;SDS011;40963;52.168;21.296;2023-06-14T07:18:31;11.70;;;7.10;;
55063;SDS011;40963;52.168;21.296;2023-06-14T07:20:56;10.10;;;6.82;;
55063;SDS011;40963;52.168;21.296;2023-06-14T07:23:22;12.65;;;7.03;;
55063;SDS011;40963;52.168;21.296;2023-06-14T07:25:48;8.70;;;6.90;;
55063;SDS011;40963;52.168;21.296;2023-06-14T07:28:14;13.02;;;7.40;;
55063;SDS011;40963;52.168;21.296;2023-06-14T07:30:41;16.75;;;6.35;;
55063;SDS011;40963;52.168;21.296;2023-06-14T07:33:07;14.75;;;6.88;;
55063;SDS011;40963;52.168;21.296;2023-06-14T07:35:33;13.10;;;6.93;;
55063;SDS011;40963;52.168;21.296;2023-06-14T07:37:59;15.18;;;7.35;;
55063;SDS011;40963;52.168;21.296;2023-06-14T07:40:25;15.07;;;7.28;;
55063;SDS011;40963;52.168;21.296;2023-06-14T07:42:51;10.85;;;7.18;;
55063;SDS011;40963;52.168;21.296;2023-06-14T07:45:19;14.05;;;7.35;;
55063;SDS011;40963;52.168;21.296;2023-06-14T07:47:44;14.68;;;7.00;;
55063;SDS011;40963;52.168;21.296;2023-06-14T07:50:10;11.30;;;6.80;;
55063;SDS011;40963;52.168;21.296;2023-06-14T07:52:36;11.00;;;6.38;;
55063;SDS011;40963;52.168;21.296;2023-06-14T07:55:02;8.70;;;5.82;;
55063;SDS011;40963;52.168;21.296;2023-06-14T07:57:28;8.23;;;5.90;;
55063;SDS011;40963;52.168;21.296;2023-06-14T07:59:54;7.35;;;5.63;;
55063;SDS011;40963;52.168;21.296;2023-06-14T08:02:19;10.60;;;6.05;;
55063;SDS011;40963;52.168;21.296;2023-06-14T08:04:45;10.25;;;5.57;;
55063;SDS011;40963;52.168;21.296;2023-06-14T08:07:13;8.70;;;5.30;;
55063;SDS011;40963;52.168;21.296;2023-06-14T08:09:39;14.27;;;5.57;;
55063;SDS011;40963;52.168;21.296;2023-06-14T08:12:05;7.60;;;5.47;;
55063;SDS011;40963;52.168;21.296;2023-06-14T08:14:35;9.45;;;5.13;;
55063;SDS011;40963;52.168;21.296;2023-06-14T08:17:01;8.00;;;6.15;;
55063;SDS011;40963;52.168;21.296;2023-06-14T08:19:26;9.75;;;5.70;;
55063;SDS011;40963;52.168;21.296;2023-06-14T08:21:52;7.82;;;5.38;;
55063;SDS011;40963;52.168;21.296;2023-06-14T08:24:21;11.65;;;5.85;;
55063;SDS011;40963;52.168;21.296;2023-06-14T08:26:49;5.65;;;4.80;;
55063;SDS011;40963;52.168;21.296;2023-06-14T08:29:15;11.90;;;5.93;;
55063;SDS011;40963;52.168;21.296;2023-06-14T08:31:41;7.82;;;5.70;;
55063;SDS011;40963;52.168;21.296;2023-06-14T08:34:06;8.93;;;5.25;;
55063;SDS011;40963;52.168;21.296;2023-06-14T08:36:32;7.47;;;5.25;;
55063;SDS011;40963;52.168;21.296;2023-06-14T08:38:58;7.00;;;5.20;;
55063;SDS011;40963;52.168;21.296;2023-06-14T08:41:23;9.82;;;5.82;;
55063;SDS011;40963;52.168;21.296;2023-06-14T08:43:49;11.45;;;6.20;;
55063;SDS011;40963;52.168;21.296;2023-06-14T08:46:17;7.95;;;5.80;;
55063;SDS011;40963;52.168;21.296;2023-06-14T08:48:46;13.57;;;6.90;;
55063;SDS011;40963;52.168;21.296;2023-06-14T08:51:14;6.22;;;5.55;;
55063;SDS011;40963;52.168;21.296;2023-06-14T08:53:43;10.68;;;5.97;;
55063;SDS011;40963;52.168;21.296;2023-06-14T08:56:10;9.70;;;6.25;;
55063;SDS011;40963;52.168;21.296;2023-06-14T08:58:47;9.25;;;6.20;;
55063;SDS011;40963;52.168;21.296;2023-06-14T09:01:14;8.35;;;5.97;;
55063;SDS011;40963;52.168;21.296;2023-06-14T09:03:42;9.63;;;5.90;;
55063;SDS011;40963;52.168;21.296;2023-06-14T09:06:09;8.98;;;5.88;;
55063;SDS011;40963;52.168;21.296;2023-06-14T09:08:40;10.85;;;6.38;;
55063;SDS011;40963;52.168;21.296;2023-06-14T09:11:13;12.40;;;6.40;;
55063;SDS011;40963;52.168;21.296;2023-06-14T09:13:40;8.52;;;5.80;;
55063;SDS011;40963;52.168;21.296;2023-06-14T09:16:06;7.07;;;6.05;;
55063;SDS011;40963;52.168;21.296;2023-06-14T09:18:34;10.20;;;5.88;;
55063;SDS011;40963;52.168;21.296;2023-06-14T09:21:07;10.25;;;6.25;;
55063;SDS011;40963;52.168;21.296;2023-06-14T09:23:33;10.63;;;6.82;;
55063;SDS011;40963;52.168;21.296;2023-06-14T09:26:15;12.63;;;5.90;;
55063;SDS011;40963;52.168;21.296;2023-06-14T09:28:46;12.05;;;6.25;;
55063;SDS011;40963;52.168;21.296;2023-06-14T09:31:16;9.55;;;6.88;;
55063;SDS011;40963;52.168;21.296;2023-06-14T09:33:47;13.70;;;6.13;;
55063;SDS011;40963;52.168;21.296;2023-06-14T09:36:18;9.55;;;6.43;;
55063;SDS011;40963;52.168;21.296;2023-06-14T09:41:38;9.25;;;5.75;;
55063;SDS011;40963;52.168;21.296;2023-06-14T09:44:06;20.85;;;6.38;;
55063;SDS011;40963;52.168;21.296;2023-06-14T09:46:33;10.75;;;5.95;;
55063;SDS011;40963;52.168;21.296;2023-06-14T09:49:01;6.75;;;5.18;;
55063;SDS011;40963;52.168;21.296;2023-06-14T09:51:28;10.95;;;5.55;;
55063;SDS011;40963;52.168;21.296;2023-06-14T09:54:00;10.10;;;5.28;;
55063;SDS011;40963;52.168;21.296;2023-06-14T09:56:30;10.88;;;5.97;;
55063;SDS011;40963;52.168;21.296;2023-06-14T09:58:56;8.95;;;5.80;;
55063;SDS011;40963;52.168;21.296;2023-06-14T10:01:24;7.40;;;5.88;;
55063;SDS011;40963;52.168;21.296;2023-06-14T10:03:52;8.95;;;6.68;;
55063;SDS011;40963;52.168;21.296;2023-06-14T10:06:22;11.55;;;5.47;;
55063;SDS011;40963;52.168;21.296;2023-06-14T10:08:50;15.85;;;5.30;;
55063;SDS011;40963;52.168;21.296;2023-06-14T10:11:20;5.43;;;4.60;;
55063;SDS011;40963;52.168;21.296;2023-06-14T10:13:46;11.10;;;5.32;;
55063;SDS011;40963;52.168;21.296;2023-06-14T10:16:17;7.05;;;4.00;;
55063;SDS011;40963;52.168;21.296;2023-06-14T10:24:03;5.25;;;4.15;;
55063;SDS011;40963;52.168;21.296;2023-06-14T10:26:32;5.63;;;4.47;;
55063;SDS011;40963;52.168;21.296;2023-06-14T10:28:59;6.88;;;4.05;;
55063;SDS011;40963;52.168;21.296;2023-06-14T10:31:42;4.80;;;4.30;;
55063;SDS011;40963;52.168;21.296;2023-06-14T10:34:12;5.15;;;4.03;;
55063;SDS011;40963;52.168;21.296;2023-06-14T10:37:05;12.68;;;4.50;;
55063;SDS011;40963;52.168;21.296;2023-06-14T10:39:33;7.30;;;4.85;;
55063;SDS011;40963;52.168;21.296;2023-06-14T10:42:05;9.32;;;4.60;;
55063;SDS011;40963;52.168;21.296;2023-06-14T10:47:06;5.40;;;4.13;;
55063;SDS011;40963;52.168;21.296;2023-06-14T10:49:38;5.32;;;4.32;;
55063;SDS011;40963;52.168;21.296;2023-06-14T10:52:12;15.07;;;4.90;;
55063;SDS011;40963;52.168;21.296;2023-06-14T10:57:36;5.35;;;4.22;;
55063;SDS011;40963;52.168;21.296;2023-06-14T11:00:03;6.65;;;4.97;;
55063;SDS011;40963;52.168;21.296;2023-06-14T11:02:46;5.05;;;4.38;;
55063;SDS011;40963;52.168;21.296;2023-06-14T11:11:16;8.88;;;4.30;;
55063;SDS011;40963;52.168;21.296;2023-06-14T11:13:44;8.60;;;4.38;;
55063;SDS011;40963;52.168;21.296;2023-06-14T11:16:13;5.70;;;3.50;;
55063;SDS011;40963;52.168;21.296;2023-06-14T11:18:40;11.88;;;3.63;;
55063;SDS011;40963;52.168;21.296;2023-06-14T11:21:06;6.80;;;3.33;;
55063;SDS011;40963;52.168;21.296;2023-06-14T11:23:33;8.55;;;4.10;;
55063;SDS011;40963;52.168;21.296;2023-06-14T11:25:59;7.43;;;4.10;;
55063;SDS011;40963;52.168;21.296;2023-06-14T11:28:35;7.30;;;3.60;;
55063;SDS011;40963;52.168;21.296;2023-06-14T11:31:05;4.68;;;3.63;;
55063;SDS011;40963;52.168;21.296;2023-06-14T11:33:31;6.03;;;3.17;;
55063;SDS011;40963;52.168;21.296;2023-06-14T11:35:57;5.20;;;3.55;;
55063;SDS011;40963;52.168;21.296;2023-06-14T11:38:22;8.88;;;3.10;;
55063;SDS011;40963;52.168;21.296;2023-06-14T11:40:49;4.80;;;2.83;;
55063;SDS011;40963;52.168;21.296;2023-06-14T11:43:15;5.88;;;2.92;;
55063;SDS011;40963;52.168;21.296;2023-06-14T11:45:41;6.30;;;2.58;;
55063;SDS011;40963;52.168;21.296;2023-06-14T11:48:07;2.80;;;2.38;;
55063;SDS011;40963;52.168;21.296;2023-06-14T11:50:33;2.85;;;2.60;;
55063;SDS011;40963;52.168;21.296;2023-06-14T11:53:03;4.03;;;2.45;;
55063;SDS011;40963;52.168;21.296;2023-06-14T11:55:32;3.35;;;2.40;;
55063;SDS011;40963;52.168;21.296;2023-06-14T11:58:04;4.38;;;2.47;;
55063;SDS011;40963;52.168;21.296;2023-06-14T12:00:30;3.78;;;2.45;;
55063;SDS011;40963;52.168;21.296;2023-06-14T12:02:56;3.40;;;2.45;;
55063;SDS011;40963;52.168;21.296;2023-06-14T12:05:22;2.33;;;1.98;;
55063;SDS011;40963;52.168;21.296;2023-06-14T12:07:49;4.95;;;2.45;;
55063;SDS011;40963;52.168;21.296;2023-06-14T12:10:18;3.60;;;2.20;;
55063;SDS011;40963;52.168;21.296;2023-06-14T12:12:44;5.53;;;1.92;;
55063;SDS011;40963;52.168;21.296;2023-06-14T12:15:09;6.47;;;1.77;;
55063;SDS011;40963;52.168;21.296;2023-06-14T12:17:38;8.82;;;1.90;;
55063;SDS011;40963;52.168;21.296;2023-06-14T12:20:10;4.95;;;1.92;;
55063;SDS011;40963;52.168;21.296;2023-06-14T12:23:02;4.55;;;2.10;;
55063;SDS011;40963;52.168;21.296;2023-06-14T12:25:27;5.47;;;2.08;;
55063;SDS011;40963;52.168;21.296;2023-06-14T12:27:58;2.17;;;1.85;;
55063;SDS011;40963;52.168;21.296;2023-06-14T12:30:24;6.25;;;2.00;;
55063;SDS011;40963;52.168;21.296;2023-06-14T12:32:50;2.00;;;1.55;;
55063;SDS011;40963;52.168;21.296;2023-06-14T12:35:16;3.58;;;1.60;;
55063;SDS011;40963;52.168;21.296;2023-06-14T12:37:43;6.93;;;1.70;;
55063;SDS011;40963;52.168;21.296;2023-06-14T12:40:10;1.95;;;1.80;;
55063;SDS011;40963;52.168;21.296;2023-06-14T12:42:36;1.92;;;1.60;;
55063;SDS011;40963;52.168;21.296;2023-06-14T12:45:02;1.98;;;1.50;;
55063;SDS011;40963;52.168;21.296;2023-06-14T12:47:28;3.95;;;1.58;;
55063;SDS011;40963;52.168;21.296;2023-06-14T12:49:54;3.00;;;1.70;;
55063;SDS011;40963;52.168;21.296;2023-06-14T12:52:19;3.22;;;1.90;;
55063;SDS011;40963;52.168;21.296;2023-06-14T12:54:45;2.20;;;2.00;;
55063;SDS011;40963;52.168;21.296;2023-06-14T12:57:10;2.35;;;1.65;;
55063;SDS011;40963;52.168;21.296;2023-06-14T12:59:36;3.95;;;2.17;;
55063;SDS011;40963;52.168;21.296;2023-06-14T13:04:37;4.95;;;1.67;;
55063;SDS011;40963;52.168;21.296;2023-06-14T13:07:03;5.05;;;2.17;;
55063;SDS011;40963;52.168;21.296;2023-06-14T13:09:29;6.60;;;1.85;;
55063;SDS011;40963;52.168;21.296;2023-06-14T13:11:55;4.13;;;2.00;;
55063;SDS011;40963;52.168;21.296;2023-06-14T13:14:21;4.90;;;2.10;;
55063;SDS011;40963;52.168;21.296;2023-06-14T13:16:46;2.97;;;2.08;;
55063;SDS011;40963;52.168;21.296;2023-06-14T13:19:12;4.00;;;2.00;;
55063;SDS011;40963;52.168;21.296;2023-06-14T13:21:37;3.67;;;2.08;;
55063;SDS011;40963;52.168;21.296;2023-06-14T13:24:03;5.55;;;2.20;;
55063;SDS011;40963;52.168;21.296;2023-06-14T13:26:29;5.03;;;2.00;;
55063;SDS011;40963;52.168;21.296;2023-06-14T13:28:54;10.07;;;2.15;;
55063;SDS011;40963;52.168;21.296;2023-06-14T13:31:20;6.10;;;2.20;;
55063;SDS011;40963;52.168;21.296;2023-06-14T13:33:46;3.80;;;2.17;;
55063;SDS011;40963;52.168;21.296;2023-06-14T13:36:11;4.72;;;2.15;;
55063;SDS011;40963;52.168;21.296;2023-06-14T13:38:37;2.53;;;1.85;;
55063;SDS011;40963;52.168;21.296;2023-06-14T13:41:03;3.72;;;2.35;;
55063;SDS011;40963;52.168;21.296;2023-06-14T13:43:29;2.20;;;2.00;;
55063;SDS011;40963;52.168;21.296;2023-06-14T13:45:55;2.55;;;2.15;;
55063;SDS011;40963;52.168;21.296;2023-06-14T13:48:20;4.35;;;1.95;;
55063;SDS011;40963;52.168;21.296;2023-06-14T13:50:46;4.05;;;1.90;;
55063;SDS011;40963;52.168;21.296;2023-06-14T13:53:12;8.23;;;2.20;;
55063;SDS011;40963;52.168;21.296;2023-06-14T13:55:39;5.85;;;2.22;;
55063;SDS011;40963;52.168;21.296;2023-06-14T13:58:04;3.78;;;2.17;;
55063;SDS011;40963;52.168;21.296;2023-06-14T14:00:30;3.25;;;2.38;;
55063;SDS011;40963;52.168;21.296;2023-06-14T14:02:56;2.42;;;1.92;;
55063;SDS011;40963;52.168;21.296;2023-06-14T14:05:22;6.22;;;2.72;;
55063;SDS011;40963;52.168;21.296;2023-06-14T14:07:53;6.25;;;1.90;;
55063;SDS011;40963;52.168;21.296;2023-06-14T14:10:19;3.60;;;2.13;;
55063;SDS011;40963;52.168;21.296;2023-06-14T14:12:45;3.13;;;2.00;;
55063;SDS011;40963;52.168;21.296;2023-06-14T14:15:11;2.40;;;2.20;;
55063;SDS011;40963;52.168;21.296;2023-06-14T14:17:39;2.50;;;2.30;;
55063;SDS011;40963;52.168;21.296;2023-06-14T14:20:06;3.35;;;2.20;;
55063;SDS011;40963;52.168;21.296;2023-06-14T14:22:32;3.45;;;2.28;;
55063;SDS011;40963;52.168;21.296;2023-06-14T14:24:58;5.13;;;2.33;;
55063;SDS011;40963;52.168;21.296;2023-06-14T14:27:23;2.80;;;2.38;;
55063;SDS011;40963;52.168;21.296;2023-06-14T14:29:49;3.40;;;2.60;;
55063;SDS011;40963;52.168;21.296;2023-06-14T14:32:15;3.08;;;2.00;;
55063;SDS011;40963;52.168;21.296;2023-06-14T14:34:40;4.53;;;2.45;;
55063;SDS011;40963;52.168;21.296;2023-06-14T14:37:06;9.05;;;2.50;;
55063;SDS011;40963;52.168;21.296;2023-06-14T14:39:32;3.22;;;2.30;;
55063;SDS011;40963;52.168;21.296;2023-06-14T14:41:58;3.75;;;2.85;;
55063;SDS011;40963;52.168;21.296;2023-06-14T14:44:23;3.80;;;2.80;;
55063;SDS011;40963;52.168;21.296;2023-06-14T14:46:49;11.43;;;2.92;;
55063;SDS011;40963;52.168;21.296;2023-06-14T14:49:15;11.52;;;2.88;;
55063;SDS011;40963;52.168;21.296;2023-06-14T14:51:40;4.57;;;2.92;;